Time;durP1;ratioP1;P1;durP2;ratioP2;P2;SDS_P1;SDS_P2;PMS_P1;PMS_P2;Temp;Humidity;BMP_temperature;BMP_pressure;BME280_temperature;BME280_humidity;BME280_pressure;Samples;Min_cycle;Max_cycle;Signal;HPM_P1;HPM_P2
2022/03/11 00:01:30;;;;;;;;;;;;;;;-4.95;48.72;102038.42;1353988;91;20346;-77
2022/03/11 00:03:57;;;;;;;;;;;;;;;-5.05;48.98;102041.06;1351081;91;20241;-78
2022/03/11 00:06:24;;;;;;;;;;;;;;;-5.15;49.52;102038.53;1349269;92;20317;-78
2022/03/11 00:08:51;;;;;;;;;;;;;;;-5.22;49.63;102051.91;1349271;91;20242;-78
2022/03/11 00:11:18;;;;;;;;;;;;;;;-5.22;49.23;102057.08;1349330;92;21229;-78
2022/03/11 00:13:45;;;;;;;;;;;;;;;-5.21;49.34;102049.75;1349610;91;20243;-78
2022/03/11 00:16:13;;;;;;;;;;;;;;;-5.21;49.22;102053.62;1349069;92;20235;-77
2022/03/11 00:18:40;;;;;;;;;;;;;;;-5.18;48.90;102054.04;1349377;91;20323;-78
2022/03/11 00:21:11;;;;;;;;;;;;;;;-5.17;49.10;102052.76;1336174;93;20361;-78
2022/03/11 00:23:35;;;;;;;;;;;;;;;-5.20;49.19;102047.61;1348761;93;20339;-78
2022/03/11 00:26:02;;;;;;;;;;;;;;;-5.27;49.54;102048.48;1349307;91;20324;-77
2022/03/11 00:28:29;;;;;;;;;;;;;;;-5.29;49.48;102048.95;1349279;91;20258;-78
2022/03/11 00:30:56;;;;;;;;;;;;;;;-5.37;49.80;102050.70;1349397;91;20777;-78
2022/03/11 00:33:22;;;;;;;;;;;;;;;-5.45;50.00;102050.73;1349542;92;20235;-78
2022/03/11 00:35:49;;;;;;;;;;;;;;;-5.52;50.04;102048.61;1349402;91;20272;-78
2022/03/11 00:38:16;;;;;;;;;;;;;;;-5.52;50.16;102041.31;1349281;92;20242;-78
2022/03/11 00:40:43;;;;;;;;;;;;;;;-5.58;50.22;102044.77;1349191;91;20242;-78
2022/03/11 00:43:10;;;;;;;;;;;;;;;-5.60;50.30;102046.48;1349287;91;20335;-78
2022/03/11 00:45:37;;;;;;;;;;;;;;;-5.60;50.40;102046.48;1349160;92;21138;-77
2022/03/11 00:48:04;;;;;;;;;;;;;;;-5.64;50.35;102051.20;1349226;92;20309;-79
2022/03/11 00:50:31;;;;;;;;;;;;;;;-5.58;50.11;102047.34;1343709;91;20260;-78
2022/03/11 00:52:58;;;;;;;;;;;;;;;-5.57;50.20;102041.31;1337697;93;20260;-78
2022/03/11 00:55:26;;;;;;;;;;;;;;;-5.59;50.39;102030.13;1337771;93;20357;-78
2022/03/11 00:57:53;;;;;;;;;;;;;;;-5.60;50.50;102040.47;1337972;93;20319;-78
2022/03/11 01:00:20;;;;;;;;;;;;;;;-5.62;50.86;102037.88;1324831;94;20328;-78
2022/03/11 01:02:47;;;;;;;;;;;;;;;-5.59;50.37;102037.87;1338719;92;20261;-78
2022/03/11 01:05:14;;;;;;;;;;;;;;;-5.54;50.56;102036.58;1336116;92;20766;-78
2022/03/11 01:07:41;;;;;;;;;;;;;;;-5.52;50.89;102035.71;1336293;93;20805;-79
2022/03/11 01:10:08;;;;;;;;;;;;;;;-5.51;50.62;102035.27;1323535;96;20372;-78
2022/03/11 01:12:37;;;;;;;;;;;;;;;-5.51;50.44;102040.44;1323886;94;21248;-78
2022/03/11 01:15:05;;;;;;;;;;;;;;;-5.46;50.85;102049.88;1324101;94;20335;-78
2022/03/11 01:17:32;;;;;;;;;;;;;;;-5.44;50.44;102045.98;1336751;92;20246;-78
2022/03/11 01:19:59;;;;;;;;;;;;;;;-5.49;50.43;102046.02;1336356;92;20261;-78
2022/03/11 01:22:26;;;;;;;;;;;;;;;-5.62;50.62;102043.48;1336272;92;20290;-78
2022/03/11 01:24:53;;;;;;;;;;;;;;;-5.71;50.83;102049.53;1336624;92;20298;-78
2022/03/11 01:27:19;;;;;;;;;;;;;;;-5.67;50.42;102044.77;1336004;92;20239;-78
2022/03/11 01:29:46;;;;;;;;;;;;;;;-5.62;50.30;102037.88;1336150;92;20847;-77
2022/03/11 01:32:13;;;;;;;;;;;;;;;-5.60;50.17;102038.75;1336139;92;20338;-77
2022/03/11 01:34:40;;;;;;;;;;;;;;;-5.56;50.72;102037.86;1336147;93;20346;-78
2022/03/11 01:37:07;;;;;;;;;;;;;;;-5.52;50.50;102040.88;1336384;92;20857;-78
2022/03/11 01:39:34;;;;;;;;;;;;;;;-5.54;50.36;102041.30;1335080;93;20254;-78
2022/03/11 01:42:01;;;;;;;;;;;;;;;-5.60;50.44;102037.45;1336458;92;20236;-78
2022/03/11 01:44:28;;;;;;;;;;;;;;;-5.72;50.64;102040.94;1336109;92;20305;-78
2022/03/11 01:46:55;;;;;;;;;;;;;;;-5.77;50.77;102034.92;1336305;92;20357;-78
2022/03/11 01:49:22;;;;;;;;;;;;;;;-5.79;50.69;102040.52;1336301;92;20346;-78
2022/03/11 01:51:50;;;;;;;;;;;;;;;-5.82;50.30;102044.83;1336569;92;20246;-78
2022/03/11 01:54:17;;;;;;;;;;;;;;;-5.79;50.16;102047.39;1336328;92;20321;-78
2022/03/11 01:56:44;;;;;;;;;;;;;;;-5.82;50.06;102050.84;1336128;92;20768;-78
2022/03/11 01:59:11;;;;;;;;;;;;;;;-5.81;50.21;102046.53;1336578;92;20299;-78
2022/03/11 02:01:38;;;;;;;;;;;;;;;-5.83;50.42;102043.97;1336327;92;20253;-78
2022/03/11 02:04:05;;;;;;;;;;;;;;;-5.83;50.83;102048.28;1336570;92;20354;-78
2022/03/11 02:06:33;;;;;;;;;;;;;;;-5.88;51.38;102045.70;1336457;92;20261;-78
2022/03/11 02:09:01;;;;;;;;;;;;;;;-5.99;51.87;102047.03;1336192;92;20238;-78
2022/03/11 02:11:28;;;;;;;;;;;;;;;-6.06;51.94;102047.06;1351267;91;20252;-78
2022/03/11 02:13:58;;;;;;;;;;;;;;;-6.11;52.18;102051.37;1354589;91;20259;-78
2022/03/11 02:16:27;;;;;;;;;;;;;;;-6.14;51.50;102049.20;1354256;92;20238;-78
2022/03/11 02:18:54;;;;;;;;;;;;;;;-6.20;51.68;102054.81;1354589;91;20859;-77
2022/03/11 02:21:22;;;;;;;;;;;;;;;-6.28;51.85;102053.52;1354507;91;20333;-77
2022/03/11 02:23:55;;;;;;;;;;;;;;;-6.34;52.21;102060.41;1342189;92;20245;-78
2022/03/11 02:26:24;;;;;;;;;;;;;;;-6.37;52.30;102060.83;1354761;91;20244;-77
2022/03/11 02:28:52;;;;;;;;;;;;;;;-6.43;52.55;102051.81;1354741;91;20386;-78
2022/03/11 02:31:21;;;;;;;;;;;;;;;-6.50;53.19;102051.80;1354761;91;20237;-78
2022/03/11 02:33:48;;;;;;;;;;;;;;;-6.55;53.22;102053.54;1354693;91;20275;-78
2022/03/11 02:36:15;;;;;;;;;;;;;;;-6.50;52.91;102056.55;1354609;91;20765;-78
2022/03/11 02:38:42;;;;;;;;;;;;;;;-6.48;52.60;102053.52;1354655;91;20259;-78
2022/03/11 02:41:08;;;;;;;;;;;;;;;-6.43;52.89;102056.96;1354404;91;20340;-78
2022/03/11 02:43:36;;;;;;;;;;;;;;;-6.39;52.62;102056.13;1353901;91;20876;-77
2022/03/11 02:46:03;;;;;;;;;;;;;;;-6.33;52.26;102051.80;1354770;91;20847;-77
2022/03/11 02:48:30;;;;;;;;;;;;;;;-6.36;52.19;102051.38;1354685;91;20334;-77
2022/03/11 02:50:57;;;;;;;;;;;;;;;-6.39;52.09;102048.39;1353427;91;20297;-78
2022/03/11 02:53:23;;;;;;;;;;;;;;;-6.39;52.31;102048.80;1354531;91;20861;-77
2022/03/11 02:55:50;;;;;;;;;;;;;;;-6.41;52.68;102056.98;1354591;91;20378;-77
2022/03/11 02:58:17;;;;;;;;;;;;;;;-6.50;52.98;102052.69;1354694;91;20371;-77
2022/03/11 03:00:44;;;;;;;;;;;;;;;-6.57;53.07;102053.52;1354616;91;20348;-78
2022/03/11 03:03:12;;;;;;;;;;;;;;;-6.62;53.20;102055.23;1354485;91;20326;-78
2022/03/11 03:05:39;;;;;;;;;;;;;;;-6.66;53.37;102061.25;1354754;91;20325;-78
2022/03/11 03:08:06;;;;;;;;;;;;;;;-6.71;53.38;102056.08;1354681;91;20809;-78
2022/03/11 03:10:33;;;;;;;;;;;;;;;-6.76;53.77;102051.78;1354715;91;20327;-78
2022/03/11 03:13:00;;;;;;;;;;;;;;;-6.83;53.83;102051.77;1354856;91;20325;-78
2022/03/11 03:15:27;;;;;;;;;;;;;;;-6.90;54.23;102059.07;1354523;91;20315;-78
2022/03/11 03:17:54;;;;;;;;;;;;;;;-6.98;54.57;102059.48;1354605;91;20359;-78
2022/03/11 03:20:21;;;;;;;;;;;;;;;-7.08;54.62;102056.44;1354554;91;20348;-79
2022/03/11 03:22:48;;;;;;;;;;;;;;;-7.13;54.70;102055.59;1354690;91;20348;-78
2022/03/11 03:25:14;;;;;;;;;;;;;;;-7.17;55.02;102057.70;1355006;91;20296;-78
2022/03/11 03:27:41;;;;;;;;;;;;;;;-7.22;55.11;102058.11;1354233;91;20348;-78
2022/03/11 03:30:09;;;;;;;;;;;;;;;-7.22;55.26;102059.39;1354639;91;20839;-78
2022/03/11 03:32:38;;;;;;;;;;;;;;;-7.22;55.33;102060.68;1354804;91;20283;-78
2022/03/11 03:35:05;;;;;;;;;;;;;;;-7.24;55.38;102058.55;1342339;92;20379;-78
2022/03/11 03:37:34;;;;;;;;;;;;;;;-7.24;55.29;102054.27;1354567;91;20229;-78
2022/03/11 03:40:00;;;;;;;;;;;;;;;-7.25;55.33;102058.95;1354563;91;20245;-78
2022/03/11 03:42:27;;;;;;;;;;;;;;;-7.24;55.33;102058.55;1354642;91;20378;-78
2022/03/11 03:44:54;;;;;;;;;;;;;;;-7.27;55.24;102058.97;1341997;92;20258;-78
2022/03/11 03:47:21;;;;;;;;;;;;;;;-7.27;54.98;102060.25;1354801;91;20229;-78
2022/03/11 03:49:48;;;;;;;;;;;;;;;-7.26;54.95;102062.39;1354654;91;20297;-78
2022/03/11 03:52:14;;;;;;;;;;;;;;;-7.31;55.12;102064.97;1354508;91;20362;-78
2022/03/11 03:54:41;;;;;;;;;;;;;;;-7.26;54.79;102061.95;1354721;91;20835;-78
2022/03/11 03:57:08;;;;;;;;;;;;;;;-7.26;54.72;102064.53;1354459;91;20315;-78
2022/03/11 03:59:35;;;;;;;;;;;;;;;-7.27;54.59;102060.69;1354439;91;20333;-78
2022/03/11 04:02:02;;;;;;;;;;;;;;;-7.28;54.75;102068.84;1342264;92;20259;-79
2022/03/11 04:04:29;;;;;;;;;;;;;;;-7.25;54.46;102062.81;1354946;91;20370;-78
2022/03/11 04:06:56;;;;;;;;;;;;;;;-7.28;54.50;102067.95;1354558;91;20340;-78
2022/03/11 04:09:23;;;;;;;;;;;;;;;-7.28;54.38;102064.98;1354769;91;20347;-78
2022/03/11 04:11:50;;;;;;;;;;;;;;;-7.27;54.28;102069.69;1354670;91;20832;-78
2022/03/11 04:14:17;;;;;;;;;;;;;;;-7.31;54.42;102068.83;1354782;91;20236;-78
2022/03/11 04:16:43;;;;;;;;;;;;;;;-7.33;54.65;102070.52;1354051;91;20341;-79
2022/03/11 04:19:10;;;;;;;;;;;;;;;-7.40;54.94;102071.77;1354387;91;20273;-78
2022/03/11 04:21:37;;;;;;;;;;;;;;;-7.48;55.51;102073.02;1354488;91;20251;-79
2022/03/11 04:24:12;;;;;;;;;;;;;;;-7.57;55.99;102072.54;1354711;91;20355;-78
2022/03/11 04:26:33;;;;;;;;;;;;;;;-7.57;55.78;102080.69;1354177;91;20281;-78
2022/03/11 04:29:00;;;;;;;;;;;;;;;-7.60;56.05;102080.67;1354702;91;20237;-78
2022/03/11 04:31:26;;;;;;;;;;;;;;;-7.59;56.12;102079.41;1354653;91;20341;-78
2022/03/11 04:33:55;;;;;;;;;;;;;;;-7.59;56.38;102084.98;1354588;91;20877;-78
2022/03/11 04:36:22;;;;;;;;;;;;;;;-7.57;56.49;102082.83;1354791;91;20341;-78
2022/03/11 04:38:49;;;;;;;;;;;;;;;-7.57;56.71;102085.83;1354601;91;20832;-78
2022/03/11 04:41:16;;;;;;;;;;;;;;;-7.58;56.58;102084.98;1354315;91;20407;-78
2022/03/11 04:43:45;;;;;;;;;;;;;;;-7.60;56.95;102083.24;1354480;91;20340;-78
2022/03/11 04:46:11;;;;;;;;;;;;;;;-7.60;57.24;102085.81;1354602;91;20258;-78
2022/03/11 04:48:40;;;;;;;;;;;;;;;-7.67;58.04;102090.08;1345036;91;20332;-78
2022/03/11 04:51:06;;;;;;;;;;;;;;;-7.68;58.03;102093.52;1353861;91;20236;-78
2022/03/11 04:53:33;;;;;;;;;;;;;;;-7.66;58.07;102090.93;1349153;91;20311;-78
2022/03/11 04:56:00;;;;;;;;;;;;;;;-7.64;58.12;102095.66;1341385;91;20254;-78
2022/03/11 04:58:27;;;;;;;;;;;;;;;-7.60;57.62;102096.10;1343458;91;20269;-78
2022/03/11 05:00:54;;;;;;;;;;;;;;;-7.59;57.41;102099.13;1350668;91;20764;-78
2022/03/11 05:03:21;;;;;;;;;;;;;;;-7.55;57.12;102099.56;1351409;91;20278;-78
2022/03/11 05:05:47;;;;;;;;;;;;;;;-7.53;57.11;102100.44;1354951;91;20416;-78
2022/03/11 05:08:14;;;;;;;;;;;;;;;-7.49;57.01;102102.16;1354685;91;20264;-78
2022/03/11 05:10:41;;;;;;;;;;;;;;;-7.47;57.18;102099.61;1354246;91;20242;-78
2022/03/11 05:13:08;;;;;;;;;;;;;;;-7.45;57.05;102101.75;1355947;90;20233;-78
2022/03/11 05:15:38;;;;;;;;;;;;;;;-7.45;57.36;102106.89;1354942;91;20347;-78
2022/03/11 05:18:04;;;;;;;;;;;;;;;-7.44;57.59;102106.91;1348648;92;20347;-78
2022/03/11 05:20:31;;;;;;;;;;;;;;;-7.45;58.00;102103.03;1356439;92;20274;-79
2022/03/11 05:22:58;;;;;;;;;;;;;;;-7.41;58.09;102102.21;1345818;91;20797;-78
2022/03/11 05:25:25;;;;;;;;;;;;;;;-7.37;58.13;102103.94;1339265;93;20261;-79
2022/03/11 05:27:52;;;;;;;;;;;;;;;-7.33;58.07;102109.55;1339131;93;20319;-78
2022/03/11 05:30:19;;;;;;;;;;;;;;;-7.28;57.96;102104.86;1339224;93;20231;-77
2022/03/11 05:32:46;;;;;;;;;;;;;;;-7.18;58.04;102104.88;1338886;93;20766;-78
2022/03/11 05:35:17;;;;;;;;;;;;;;;-7.16;58.32;102104.05;1353889;91;20251;-77
2022/03/11 05:37:44;;;;;;;;;;;;;;;-7.10;58.32;102101.92;1356974;91;20772;-77
2022/03/11 05:40:12;;;;;;;;;;;;;;;-7.02;58.51;102100.63;1350245;91;20310;-77
2022/03/11 05:42:39;;;;;;;;;;;;;;;-7.03;58.69;102103.64;1349006;91;20340;-78
2022/03/11 05:45:12;;;;;;;;;;;;;;;-6.98;58.54;102104.95;1344861;92;20774;-78
2022/03/11 05:47:39;;;;;;;;;;;;;;;-6.92;58.66;102109.69;1348256;91;20779;-78
2022/03/11 05:50:32;;;;;;;;;;;;;;;-6.83;58.57;102107.13;1347264;91;20808;-78
2022/03/11 05:52:59;;;;;;;;;;;;;;;-6.83;58.37;102118.72;1338784;92;20246;-78
2022/03/11 05:55:26;;;;;;;;;;;;;;;-6.71;58.60;102121.75;1339182;93;20224;-78
2022/03/11 05:57:52;;;;;;;;;;;;;;;-6.60;58.38;102116.19;1339076;93;20744;-78
2022/03/11 06:00:20;;;;;;;;;;;;;;;-6.50;58.10;102113.22;1343028;91;20320;-79
2022/03/11 06:02:46;;;;;;;;;;;;;;;-6.46;58.03;102117.51;1352048;93;20243;-78
2022/03/11 06:05:14;;;;;;;;;;;;;;;-6.37;57.73;102121.37;1355443;91;20762;-78
2022/03/11 06:07:41;;;;;;;;;;;;;;;-6.22;57.77;102117.09;1355659;91;20249;-77
2022/03/11 06:10:09;;;;;;;;;;;;;;;-6.11;57.50;102120.53;1354584;91;20401;-79
2022/03/11 06:12:36;;;;;;;;;;;;;;;-6.03;57.52;102120.53;1354754;91;20234;-79
2022/03/11 06:15:11;;;;;;;;;;;;;;;-5.92;57.26;102126.52;1356397;91;20324;-78
2022/03/11 06:17:38;;;;;;;;;;;;;;;-5.85;57.18;102128.64;1354666;91;20337;-85
2022/03/11 06:20:08;;;;;;;;;;;;;;;-5.76;56.85;102141.52;1360499;91;20338;-85
2022/03/11 06:22:38;;;;;;;;;;;;;;;-5.62;57.14;102128.17;1354601;91;21137;-86
2022/03/11 06:25:06;;;;;;;;;;;;;;;-5.54;56.32;102134.18;1354711;91;20256;-85
2022/03/11 06:27:32;;;;;;;;;;;;;;;-5.35;56.30;102134.12;1354690;91;20255;-86
2022/03/11 06:29:59;;;;;;;;;;;;;;;-5.19;55.72;102138.37;1341640;90;20245;-87
2022/03/11 06:32:26;;;;;;;;;;;;;;;-5.15;54.70;102134.94;1346927;92;20855;-87
2022/03/11 06:34:54;;;;;;;;;;;;;;;-5.03;55.05;102131.44;1347400;91;20230;-83
2022/03/11 06:37:21;;;;;;;;;;;;;;;-4.92;55.18;102132.26;1332849;92;20359;-85
2022/03/11 06:39:48;;;;;;;;;;;;;;;-4.85;54.24;102134.37;1329120;93;20329;-86
2022/03/11 06:42:15;;;;;;;;;;;;;;;-4.72;54.05;102138.58;1328842;93;20848;-85
2022/03/11 06:44:42;;;;;;;;;;;;;;;-4.57;53.89;102133.78;1329129;93;20262;-85
2022/03/11 06:47:09;;;;;;;;;;;;;;;-4.49;53.35;102131.13;1329099;93;20299;-86
2022/03/11 06:49:35;;;;;;;;;;;;;;;-4.47;52.83;102122.50;1329456;92;20307;-86
2022/03/11 06:52:03;;;;;;;;;;;;;;;-4.33;52.28;102133.61;1329327;93;20247;-86
2022/03/11 06:54:33;;;;;;;;;;;;;;;-4.21;52.11;102127.48;1329592;93;20247;-85
2022/03/11 06:57:00;;;;;;;;;;;;;;;-4.20;51.57;102129.22;1330076;92;20918;-86
2022/03/11 06:59:27;;;;;;;;;;;;;;;-3.99;51.31;102132.05;1329249;94;20285;-86
2022/03/11 07:01:53;;;;;;;;;;;;;;;-3.90;50.56;102125.50;1329365;92;20276;-85
2022/03/11 07:04:20;;;;;;;;;;;;;;;-3.74;50.03;102118.47;1329204;92;21159;-85
2022/03/11 07:06:47;;;;;;;;;;;;;;;-3.46;49.64;102124.63;1334679;92;20238;-86
2022/03/11 07:09:14;;;;;;;;;;;;;;;-3.25;48.33;102120.94;1336593;92;20848;-85
2022/03/11 07:11:41;;;;;;;;;;;;;;;-3.14;47.12;102117.78;1336726;92;20284;-85
2022/03/11 07:14:08;;;;;;;;;;;;;;;-3.08;46.60;102119.44;1337343;92;20350;-85
2022/03/11 07:16:35;;;;;;;;;;;;;;;-3.03;45.26;102120.24;1342075;92;20259;-86
2022/03/11 07:19:02;;;;;;;;;;;;;;;-3.11;44.52;102118.19;1352793;91;20243;-85
2022/03/11 07:21:29;;;;;;;;;;;;;;;-3.10;45.04;102114.73;1352814;91;20912;-84
2022/03/11 07:23:56;;;;;;;;;;;;;;;-2.88;45.19;102114.00;1352783;91;20238;-85
2022/03/11 07:26:23;;;;;;;;;;;;;;;-2.81;43.69;102116.95;1352889;91;20245;-85
2022/03/11 07:28:50;;;;;;;;;;;;;;;-2.85;43.49;102114.84;1352969;91;20258;-83
2022/03/11 07:31:16;;;;;;;;;;;;;;;-2.65;43.90;102103.31;1352906;91;20847;-83
2022/03/11 07:33:43;;;;;;;;;;;;;;;-2.77;43.26;102102.61;1352883;91;20251;-85
2022/03/11 07:36:10;;;;;;;;;;;;;;;-2.55;43.48;102099.72;1353788;91;20244;-85
2022/03/11 07:38:37;;;;;;;;;;;;;;;-2.51;42.17;102098.78;1352959;91;20251;-84
2022/03/11 07:41:07;;;;;;;;;;;;;;;-2.33;42.30;102104.12;1352971;91;20266;-84
2022/03/11 07:43:33;;;;;;;;;;;;;;;-2.25;42.89;102101.41;1351512;91;20244;-85
2022/03/11 07:45:59;;;;;;;;;;;;;;;-2.03;43.49;102094.99;1352805;91;20764;-86
2022/03/11 07:48:26;;;;;;;;;;;;;;;-1.69;42.91;102095.70;1353070;91;20322;-86
2022/03/11 07:50:53;;;;;;;;;;;;;;;-1.47;40.83;102089.18;1349907;91;20247;-84
2022/03/11 07:53:20;;;;;;;;;;;;;;;-1.36;39.18;102089.83;1348062;92;20248;-83
2022/03/11 07:55:47;;;;;;;;;;;;;;;-1.36;39.15;102082.04;1372287;90;20843;-85
2022/03/11 07:58:14;;;;;;;;;;;;;;;-1.39;39.40;102090.34;1359212;91;20271;-84
2022/03/11 08:00:42;;;;;;;;;;;;;;;-1.18;39.54;102086.45;1359382;91;20257;-88
2022/03/11 08:03:08;;;;;;;;;;;;;;;-1.08;39.16;102089.27;1372499;90;20249;-86
2022/03/11 08:05:36;;;;;;;;;;;;;;;-0.89;38.61;102092.77;1372925;89;20294;-89
2022/03/11 08:08:03;;;;;;;;;;;;;;;-1.17;38.09;102089.47;1372193;90;20331;-86
2022/03/11 08:10:33;;;;;;;;;;;;;;;-1.23;37.50;102085.70;1373088;90;20256;-87
2022/03/11 08:12:59;;;;;;;;;;;;;;;-1.41;37.97;102086.49;1372185;90;20287;-86
2022/03/11 08:15:27;;;;;;;;;;;;;;;-1.16;38.89;102082.08;1372473;90;20287;-87
2022/03/11 08:17:54;;;;;;;;;;;;;;;-0.91;38.96;102080.67;1373005;90;20256;-86
2022/03/11 08:20:21;;;;;;;;;;;;;;;-0.78;35.79;102079.09;1372415;89;20234;-83
2022/03/11 08:22:51;;;;;;;;;;;;;;;-0.49;36.61;102079.30;1372717;90;20233;-83
2022/03/11 08:25:20;;;;;;;;;;;;;;;-0.66;34.62;102077.53;1372477;89;20257;-84
2022/03/11 08:27:47;;;;;;;;;;;;;;;-0.71;34.68;102073.72;1372204;89;20257;-83
2022/03/11 08:30:14;;;;;;;;;;;;;;;-0.73;34.45;102073.34;1372622;90;20263;-83
2022/03/11 08:32:41;;;;;;;;;;;;;;;-0.87;34.23;102083.20;1372052;90;20807;-84
2022/03/11 08:35:09;;;;;;;;;;;;;;;-0.43;34.53;102082.20;1372443;90;20836;-83
2022/03/11 08:37:36;;;;;;;;;;;;;;;-0.23;33.97;102077.81;1372112;90;20264;-84
2022/03/11 08:40:06;;;;;;;;;;;;;;;-0.01;33.13;102073.74;1372419;89;20316;-83
2022/03/11 08:42:33;;;;;;;;;;;;;;;0.09;32.94;102074.37;1371936;90;20310;-83
2022/03/11 08:45:01;;;;;;;;;;;;;;;-0.12;34.29;102077.06;1369204;90;20248;-83
2022/03/11 08:47:28;;;;;;;;;;;;;;;0.17;34.42;102071.55;1369483;89;20748;-84
2022/03/11 08:49:55;;;;;;;;;;;;;;;0.48;34.34;102065.52;1369494;89;20256;-85
2022/03/11 08:52:24;;;;;;;;;;;;;;;0.60;32.39;102065.16;1369570;89;20255;-85
2022/03/11 08:54:51;;;;;;;;;;;;;;;0.76;31.35;102071.66;1369814;89;20339;-85
2022/03/11 08:57:18;;;;;;;;;;;;;;;0.90;32.13;102069.95;1369252;90;20256;-83
2022/03/11 08:59:45;;;;;;;;;;;;;;;0.51;29.77;102051.09;1369558;89;20249;-84
2022/03/11 09:02:15;;;;;;;;;;;;;;;0.34;30.12;102056.32;1370143;89;20257;-84
2022/03/11 09:04:42;;;;;;;;;;;;;;;0.37;30.58;102048.42;1372119;90;20323;-89
2022/03/11 09:07:09;;;;;;;;;;;;;;;0.77;31.19;102052.50;1371994;90;20295;-87
2022/03/11 09:09:36;;;;;;;;;;;;;;;1.08;30.09;102050.28;1368492;90;20839;-91
2022/03/11 09:12:04;;;;;;;;;;;;;;;1.05;29.62;102050.38;1369094;90;20334;-92
2022/03/11 09:14:31;;;;;;;;;;;;;;;1.29;29.44;102053.52;1369277;90;20242;-91
2022/03/11 09:16:59;;;;;;;;;;;;;;;1.46;27.68;102058.66;1369240;90;20242;-90
2022/03/11 09:19:26;;;;;;;;;;;;;;;1.54;28.37;102044.92;1368854;90;20250;-91
2022/03/11 09:21:52;;;;;;;;;;;;;;;1.63;28.55;102048.52;1368473;90;20243;-90
2022/03/11 09:24:19;;;;;;;;;;;;;;;1.74;28.65;102047.72;1369160;90;20866;-90
2022/03/11 09:26:47;;;;;;;;;;;;;;;1.76;28.82;102045.08;1368133;90;20335;-90
2022/03/11 09:29:14;;;;;;;;;;;;;;;2.06;29.95;102045.77;1369031;90;20242;-91
2022/03/11 09:31:41;;;;;;;;;;;;;;;1.69;28.71;102046.16;1368885;90;20478;-90
2022/03/11 09:34:08;;;;;;;;;;;;;;;1.55;28.67;102050.11;1368406;90;20249;-89
2022/03/11 09:36:36;;;;;;;;;;;;;;;1.89;29.29;102048.11;1369255;90;20257;-90
2022/03/11 09:39:03;;;;;;;;;;;;;;;2.23;29.10;102047.80;1368925;90;20227;-89
2022/03/11 09:41:29;;;;;;;;;;;;;;;2.05;28.57;102032.78;1368849;90;20354;-90
2022/03/11 09:43:56;;;;;;;;;;;;;;;2.17;28.06;102048.02;1369128;90;20316;-93
2022/03/11 09:46:25;;;;;;;;;;;;;;;2.53;27.70;102032.75;1369600;90;20272;-92
2022/03/11 09:48:52;;;;;;;;;;;;;;;1.58;27.72;102042.17;1370090;90;20740;-92
2022/03/11 09:51:20;;;;;;;;;;;;;;;1.59;27.93;102037.80;1369571;90;20226;-90
2022/03/11 09:53:46;;;;;;;;;;;;;;;1.91;27.89;102037.17;1368776;90;20256;-91
2022/03/11 09:56:13;;;;;;;;;;;;;;;2.41;26.35;102028.83;1369684;90;20338;-93
2022/03/11 09:58:40;;;;;;;;;;;;;;;2.78;26.50;102029.23;1370254;90;20763;-90
2022/03/11 10:01:07;;;;;;;;;;;;;;;2.76;26.18;102030.58;1369633;90;20243;-93
2022/03/11 10:03:34;;;;;;;;;;;;;;;3.03;25.44;102027.38;1356821;91;20272;-95
2022/03/11 10:06:01;;;;;;;;;;;;;;;2.86;25.19;102025.88;1369027;90;20257;-90
2022/03/11 10:08:36;;;;;;;;;;;;;;;3.13;25.91;102025.24;1373718;90;20279;-91
2022/03/11 10:11:23;;;;;;;;;;;;;;;3.44;26.22;102022.25;1374681;89;20725;-81
2022/03/11 10:14:08;;;;;;;;;;;;;;;3.45;28.20;102017.39;1373043;90;20257;-83
2022/03/11 10:16:36;;;;;;;;;;;;;;;3.51;26.82;102013.25;1373923;90;20279;-83
2022/03/11 10:19:08;;;;;;;;;;;;;;;4.10;27.25;102018.16;1373471;90;20257;-83
2022/03/11 10:21:40;;;;;;;;;;;;;;;3.74;25.23;102010.97;1373169;89;20383;-84
2022/03/11 10:24:11;;;;;;;;;;;;;;;3.70;24.79;102012.00;1373260;90;21183;-82
2022/03/11 10:26:44;;;;;;;;;;;;;;;4.00;26.56;102008.55;1373343;89;20286;-89
2022/03/11 10:29:16;;;;;;;;;;;;;;;4.48;27.59;102015.12;1373460;89;20829;-88
2022/03/11 10:31:45;;;;;;;;;;;;;;;4.63;24.09;102007.48;1373873;90;20312;-90
2022/03/11 10:34:33;;;;;;;;;;;;;;;5.03;24.51;102011.71;1373441;89;20241;-89
2022/03/11 10:37:06;;;;;;;;;;;;;;;5.35;23.28;102008.88;1372998;89;20859;-89
2022/03/11 10:39:42;;;;;;;;;;;;;;;5.26;22.18;102010.60;1373576;89;20858;-89
2022/03/11 10:42:16;;;;;;;;;;;;;;;5.63;22.60;101999.13;1372997;89;20793;-91
2022/03/11 10:45:04;;;;;;;;;;;;;;;5.87;21.94;101999.68;1373287;89;20241;-90
2022/03/11 10:47:36;;;;;;;;;;;;;;;5.51;22.17;101992.34;1375071;89;20258;-96
2022/03/11 10:50:12;;;;;;;;;;;;;;;5.51;21.52;101987.09;1376256;89;20249;-95
2022/03/11 10:52:43;;;;;;;;;;;;;;;5.36;20.93;101987.39;1377619;90;20323;-94
2022/03/11 10:55:18;;;;;;;;;;;;;;;5.34;20.53;101980.05;1375337;90;20309;-96
2022/03/11 10:57:46;;;;;;;;;;;;;;;4.94;20.69;101971.02;1375577;89;20769;-95
2022/03/11 11:00:28;;;;;;;;;;;;;;;4.45;20.36;101975.09;1375690;89;20777;-95
2022/03/11 11:02:57;;;;;;;;;;;;;;;4.59;20.62;101971.38;1380439;90;20249;-95
2022/03/11 11:05:25;;;;;;;;;;;;;;;5.20;22.06;101960.56;1372639;90;20242;-95
2022/03/11 11:07:52;;;;;;;;;;;;;;;5.52;19.61;101951.55;1357955;91;20248;-93
2022/03/11 11:10:21;;;;;;;;;;;;;;;5.82;19.04;101952.23;1370829;90;20335;-95
2022/03/11 11:12:49;;;;;;;;;;;;;;;5.93;19.28;101940.73;1348984;92;20269;-96
2022/03/11 11:15:16;;;;;;;;;;;;;;;6.41;19.68;101948.69;1380617;89;20249;-95
2022/03/11 11:17:45;;;;;;;;;;;;;;;6.79;19.62;101938.70;1360223;91;20228;-96
2022/03/11 11:22:49;;;;;;;;;;;;;;;7.13;19.75;101934.13;1409524;86;20221;-94
2022/03/11 11:25:20;;;;;;;;;;;;;;;7.30;18.54;101926.56;1425584;85;20332;-96
2022/03/11 11:30:31;;;;;;;;;;;;;;;7.37;17.98;101923.49;1401020;86;20289;-95
2022/03/11 11:33:03;;;;;;;;;;;;;;;5.90;16.67;101922.47;1382661;89;20190;-96
2022/03/11 11:36:01;;;;;;;;;;;;;;;;;;;;;
2022/03/11 11:40:56;;;;;;;;;;;;;;;5.39;18.87;101913.25;1384879;90;20832;-93
2022/03/11 11:43:33;;;;;;;;;;;;;;;5.94;17.67;101908.25;1357692;91;20244;-89
2022/03/11 11:46:16;;;;;;;;;;;;;;;6.05;18.23;101920.84;1393431;85;20789;31
2022/03/11 11:48:49;;;;;;;;;;;;;;;6.58;18.17;101911.78;1403938;87;21034;-94
2022/03/11 11:51:20;;;;;;;;;;;;;;;6.65;17.37;101902.63;1364710;89;20781;-95
2022/03/11 11:54:08;;;;;;;;;;;;;;;6.76;17.43;101897.61;1401003;86;20259;31
2022/03/11 11:56:45;;;;;;;;;;;;;;;7.06;17.48;101907.78;1376282;87;20274;-95
2022/03/11 11:59:20;;;;;;;;;;;;;;;7.59;16.67;101894.06;1379946;89;20192;-95
2022/03/11 12:01:55;;;;;;;;;;;;;;;8.03;16.78;101888.36;1377938;90;20279;-96
2022/03/11 12:04:29;;;;;;;;;;;;;;;8.58;17.25;101888.36;1377244;89;20256;-93
2022/03/11 12:07:00;;;;;;;;;;;;;;;7.98;15.52;101891.27;1378466;90;20279;-95
2022/03/11 12:09:45;;;;;;;;;;;;;;;7.99;16.33;101886.36;1379410;90;20317;-95
2022/03/11 12:12:22;;;;;;;;;;;;;;;8.06;16.21;101875.82;1377435;90;20257;-95
2022/03/11 12:15:04;;;;;;;;;;;;;;;7.83;16.29;101881.67;1377849;90;20190;-92
2022/03/11 12:17:42;;;;;;;;;;;;;;;8.44;16.90;101877.84;1378742;90;20880;-96
2022/03/11 12:20:31;;;;;;;;;;;;;;;8.74;16.25;101866.23;1378414;90;20249;-95
2022/03/11 12:23:09;;;;;;;;;;;;;;;9.12;16.40;101868.13;1375527;90;20294;-94
2022/03/11 12:25:38;;;;;;;;;;;;;;;9.14;16.41;101865.76;1363520;91;20242;-94
2022/03/11 12:28:28;;;;;;;;;;;;;;;8.95;16.26;101864.00;1376046;90;20807;-95
2022/03/11 12:30:57;;;;;;;;;;;;;;;7.77;15.63;101864.45;1377812;90;20837;-92
2022/03/11 12:33:26;;;;;;;;;;;;;;;8.31;15.20;101868.98;1376555;90;20227;-91
2022/03/11 12:35:55;;;;;;;;;;;;;;;7.71;15.88;101856.92;1375375;90;20242;-94
2022/03/11 12:38:27;;;;;;;;;;;;;;;7.50;15.92;101863.48;1377646;90;20226;-93
2022/03/11 12:40:57;;;;;;;;;;;;;;;8.24;16.57;101861.09;1376091;90;20256;-92
2022/03/11 12:43:23;;;;;;;;;;;;;;;8.26;15.37;101859.22;1376097;90;20234;-94
2022/03/11 12:45:55;;;;;;;;;;;;;;;7.42;15.36;101854.72;1378532;90;20258;-96
2022/03/11 12:48:25;;;;;;;;;;;;;;;8.23;16.49;101856.30;1378760;90;20249;-95
2022/03/11 12:50:52;;;;;;;;;;;;;;;8.86;16.40;101852.25;1378195;90;20837;-94
2022/03/11 12:53:20;;;;;;;;;;;;;;;9.76;16.07;101847.03;1376930;90;20286;-93
2022/03/11 12:55:48;;;;;;;;;;;;;;;9.82;13.98;101844.80;1378249;90;20272;-93